sensor_id;sensor_type;location;lat;lon;timestamp;P1;durP1;ratioP1;P2;durP2;ratioP2
43509;SDS011;29105;57.764;40.952;2023-01-24T00:00:10;20.38;;;8.93;;
43509;SDS011;29105;57.764;40.952;2023-01-24T00:02:38;17.33;;;8.07;;
43509;SDS011;29105;57.764;40.952;2023-01-24T00:05:04;26.38;;;10.02;;
43509;SDS011;29105;57.764;40.952;2023-01-24T00:07:30;22.55;;;9.52;;
43509;SDS011;29105;57.764;40.952;2023-01-24T00:09:56;30.23;;;10.23;;
43509;SDS011;29105;57.764;40.952;2023-01-24T00:12:22;23.98;;;7.55;;
43509;SDS011;29105;57.764;40.952;2023-01-24T00:14:48;32.55;;;10.82;;
43509;SDS011;29105;57.764;40.952;2023-01-24T00:17:13;25.50;;;9.90;;
43509;SDS011;29105;57.764;40.952;2023-01-24T00:19:39;14.82;;;7.18;;
43509;SDS011;29105;57.764;40.952;2023-01-24T00:22:05;28.85;;;11.07;;
43509;SDS011;29105;57.764;40.952;2023-01-24T00:24:32;37.15;;;13.52;;
43509;SDS011;29105;57.764;40.952;2023-01-24T00:27:00;30.55;;;10.27;;
43509;SDS011;29105;57.764;40.952;2023-01-24T00:29:26;19.10;;;6.20;;
43509;SDS011;29105;57.764;40.952;2023-01-24T00:31:52;12.38;;;5.32;;
43509;SDS011;29105;57.764;40.952;2023-01-24T00:34:17;34.92;;;11.60;;
43509;SDS011;29105;57.764;40.952;2023-01-24T00:36:43;20.48;;;7.85;;
43509;SDS011;29105;57.764;40.952;2023-01-24T00:39:11;29.70;;;10.32;;
43509;SDS011;29105;57.764;40.952;2023-01-24T00:41:37;42.25;;;13.38;;
43509;SDS011;29105;57.764;40.952;2023-01-24T00:44:02;40.80;;;13.73;;
43509;SDS011;29105;57.764;40.952;2023-01-24T00:46:28;37.13;;;12.57;;
43509;SDS011;29105;57.764;40.952;2023-01-24T00:48:54;35.00;;;11.70;;
43509;SDS011;29105;57.764;40.952;2023-01-24T00:51:21;32.00;;;13.30;;
43509;SDS011;29105;57.764;40.952;2023-01-24T00:53:47;33.38;;;9.57;;
43509;SDS011;29105;57.764;40.952;2023-01-24T00:56:13;23.50;;;9.80;;
43509;SDS011;29105;57.764;40.952;2023-01-24T00:58:38;16.25;;;6.93;;
43509;SDS011;29105;57.764;40.952;2023-01-24T01:01:04;25.67;;;8.45;;
43509;SDS011;29105;57.764;40.952;2023-01-24T01:03:30;15.85;;;5.10;;
43509;SDS011;29105;57.764;40.952;2023-01-24T01:08:25;33.72;;;10.45;;
43509;SDS011;29105;57.764;40.952;2023-01-24T01:10:51;39.15;;;14.32;;
43509;SDS011;29105;57.764;40.952;2023-01-24T01:13:17;23.67;;;9.10;;
43509;SDS011;29105;57.764;40.952;2023-01-24T01:15:43;28.48;;;9.98;;
43509;SDS011;29105;57.764;40.952;2023-01-24T01:18:08;37.22;;;14.93;;
43509;SDS011;29105;57.764;40.952;2023-01-24T01:20:41;29.92;;;10.80;;
43509;SDS011;29105;57.764;40.952;2023-01-24T01:23:08;18.50;;;7.40;;
43509;SDS011;29105;57.764;40.952;2023-01-24T01:25:37;23.35;;;9.05;;
43509;SDS011;29105;57.764;40.952;2023-01-24T01:28:05;33.63;;;11.90;;
43509;SDS011;29105;57.764;40.952;2023-01-24T01:30:31;15.10;;;3.97;;
43509;SDS011;29105;57.764;40.952;2023-01-24T01:32:58;32.63;;;12.52;;
43509;SDS011;29105;57.764;40.952;2023-01-24T01:35:23;30.25;;;11.43;;
43509;SDS011;29105;57.764;40.952;2023-01-24T01:37:49;27.75;;;11.40;;
43509;SDS011;29105;57.764;40.952;2023-01-24T01:40:16;31.50;;;12.80;;
43509;SDS011;29105;57.764;40.952;2023-01-24T01:42:48;34.20;;;13.73;;
43509;SDS011;29105;57.764;40.952;2023-01-24T01:45:38;21.10;;;8.80;;
43509;SDS011;29105;57.764;40.952;2023-01-24T01:48:24;22.80;;;6.72;;
43509;SDS011;29105;57.764;40.952;2023-01-24T01:51:24;20.95;;;6.68;;
43509;SDS011;29105;57.764;40.952;2023-01-24T01:58:52;37.50;;;12.07;;
43509;SDS011;29105;57.764;40.952;2023-01-24T02:01:22;37.65;;;13.73;;
43509;SDS011;29105;57.764;40.952;2023-01-24T02:03:52;18.10;;;6.22;;
43509;SDS011;29105;57.764;40.952;2023-01-24T02:06:33;25.42;;;8.38;;
43509;SDS011;29105;57.764;40.952;2023-01-24T02:09:07;22.17;;;9.73;;
43509;SDS011;29105;57.764;40.952;2023-01-24T02:11:34;29.10;;;7.70;;
43509;SDS011;29105;57.764;40.952;2023-01-24T02:14:03;20.98;;;8.63;;
43509;SDS011;29105;57.764;40.952;2023-01-24T02:16:48;15.60;;;7.07;;
43509;SDS011;29105;57.764;40.952;2023-01-24T02:19:17;20.70;;;7.28;;
43509;SDS011;29105;57.764;40.952;2023-01-24T02:21:52;30.80;;;11.93;;
43509;SDS011;29105;57.764;40.952;2023-01-24T02:24:29;18.23;;;7.85;;
43509;SDS011;29105;57.764;40.952;2023-01-24T02:26:57;21.70;;;7.15;;
43509;SDS011;29105;57.764;40.952;2023-01-24T02:29:24;21.50;;;9.18;;
43509;SDS011;29105;57.764;40.952;2023-01-24T02:31:57;28.15;;;10.20;;
43509;SDS011;29105;57.764;40.952;2023-01-24T02:34:26;26.50;;;8.93;;
43509;SDS011;29105;57.764;40.952;2023-01-24T02:36:54;20.23;;;8.20;;
43509;SDS011;29105;57.764;40.952;2023-01-24T02:39:32;16.25;;;5.93;;
43509;SDS011;29105;57.764;40.952;2023-01-24T02:42:13;34.92;;;12.45;;
43509;SDS011;29105;57.764;40.952;2023-01-24T02:44:43;14.65;;;5.13;;
43509;SDS011;29105;57.764;40.952;2023-01-24T02:47:11;36.20;;;14.15;;
43509;SDS011;29105;57.764;40.952;2023-01-24T02:49:37;30.42;;;11.45;;
43509;SDS011;29105;57.764;40.952;2023-01-24T02:52:02;30.10;;;10.63;;
43509;SDS011;29105;57.764;40.952;2023-01-24T02:54:46;28.17;;;12.13;;
43509;SDS011;29105;57.764;40.952;2023-01-24T02:57:12;26.00;;;10.55;;
43509;SDS011;29105;57.764;40.952;2023-01-24T02:59:56;20.15;;;7.25;;
43509;SDS011;29105;57.764;40.952;2023-01-24T03:02:22;16.27;;;7.57;;
43509;SDS011;29105;57.764;40.952;2023-01-24T03:04:47;38.58;;;14.13;;
43509;SDS011;29105;57.764;40.952;2023-01-24T03:07:13;30.83;;;12.40;;
43509;SDS011;29105;57.764;40.952;2023-01-24T03:09:39;20.02;;;8.43;;
43509;SDS011;29105;57.764;40.952;2023-01-24T03:12:14;27.05;;;10.38;;
43509;SDS011;29105;57.764;40.952;2023-01-24T03:14:58;21.02;;;8.77;;
43509;SDS011;29105;57.764;40.952;2023-01-24T03:17:42;25.60;;;8.95;;
43509;SDS011;29105;57.764;40.952;2023-01-24T03:20:27;22.77;;;8.60;;
43509;SDS011;29105;57.764;40.952;2023-01-24T03:23:11;40.65;;;15.55;;
43509;SDS011;29105;57.764;40.952;2023-01-24T03:25:56;33.75;;;14.65;;
43509;SDS011;29105;57.764;40.952;2023-01-24T03:28:42;34.97;;;12.55;;
43509;SDS011;29105;57.764;40.952;2023-01-24T03:31:26;31.15;;;11.68;;
43509;SDS011;29105;57.764;40.952;2023-01-24T03:34:10;27.63;;;11.23;;
43509;SDS011;29105;57.764;40.952;2023-01-24T03:36:54;28.25;;;12.27;;
43509;SDS011;29105;57.764;40.952;2023-01-24T03:39:20;41.03;;;15.60;;
43509;SDS011;29105;57.764;40.952;2023-01-24T03:42:05;32.90;;;11.50;;
43509;SDS011;29105;57.764;40.952;2023-01-24T03:44:30;27.67;;;11.77;;
43509;SDS011;29105;57.764;40.952;2023-01-24T03:46:56;15.95;;;6.13;;
43509;SDS011;29105;57.764;40.952;2023-01-24T03:49:22;32.38;;;12.73;;
43509;SDS011;29105;57.764;40.952;2023-01-24T03:52:06;41.20;;;14.48;;
43509;SDS011;29105;57.764;40.952;2023-01-24T03:54:52;41.45;;;15.00;;
43509;SDS011;29105;57.764;40.952;2023-01-24T03:57:18;15.30;;;5.93;;
43509;SDS011;29105;57.764;40.952;2023-01-24T03:59:44;26.23;;;9.50;;
43509;SDS011;29105;57.764;40.952;2023-01-24T04:02:09;25.55;;;10.27;;
43509;SDS011;29105;57.764;40.952;2023-01-24T04:04:36;32.28;;;11.13;;
43509;SDS011;29105;57.764;40.952;2023-01-24T04:07:20;20.30;;;8.70;;
43509;SDS011;29105;57.764;40.952;2023-01-24T04:09:46;16.65;;;7.45;;
43509;SDS011;29105;57.764;40.952;2023-01-24T04:12:12;29.48;;;11.95;;
43509;SDS011;29105;57.764;40.952;2023-01-24T04:14:38;31.90;;;12.50;;
43509;SDS011;29105;57.764;40.952;2023-01-24T04:17:03;25.17;;;10.55;;
43509;SDS011;29105;57.764;40.952;2023-01-24T04:19:29;21.52;;;6.95;;
43509;SDS011;29105;57.764;40.952;2023-01-24T04:21:55;44.58;;;16.55;;
43509;SDS011;29105;57.764;40.952;2023-01-24T04:24:22;29.33;;;11.02;;
43509;SDS011;29105;57.764;40.952;2023-01-24T04:26:48;33.45;;;10.38;;
43509;SDS011;29105;57.764;40.952;2023-01-24T04:29:14;44.15;;;15.80;;
43509;SDS011;29105;57.764;40.952;2023-01-24T04:31:39;20.95;;;6.70;;
43509;SDS011;29105;57.764;40.952;2023-01-24T04:34:05;49.67;;;17.27;;
43509;SDS011;29105;57.764;40.952;2023-01-24T04:36:31;16.38;;;6.90;;
43509;SDS011;29105;57.764;40.952;2023-01-24T04:39:00;44.35;;;15.93;;
43509;SDS011;29105;57.764;40.952;2023-01-24T04:41:25;50.22;;;17.38;;
43509;SDS011;29105;57.764;40.952;2023-01-24T04:43:51;39.45;;;15.70;;
43509;SDS011;29105;57.764;40.952;2023-01-24T04:46:17;48.75;;;18.60;;
43509;SDS011;29105;57.764;40.952;2023-01-24T04:48:44;41.63;;;14.50;;
43509;SDS011;29105;57.764;40.952;2023-01-24T04:51:09;37.08;;;15.00;;
43509;SDS011;29105;57.764;40.952;2023-01-24T04:53:37;29.52;;;11.68;;
43509;SDS011;29105;57.764;40.952;2023-01-24T04:56:07;17.98;;;8.35;;
43509;SDS011;29105;57.764;40.952;2023-01-24T04:58:33;48.60;;;16.58;;
43509;SDS011;29105;57.764;40.952;2023-01-24T05:01:03;43.70;;;15.55;;
43509;SDS011;29105;57.764;40.952;2023-01-24T05:03:28;33.08;;;11.07;;
43509;SDS011;29105;57.764;40.952;2023-01-24T05:05:57;31.63;;;11.43;;
43509;SDS011;29105;57.764;40.952;2023-01-24T05:08:26;27.75;;;10.65;;
43509;SDS011;29105;57.764;40.952;2023-01-24T05:10:52;35.63;;;13.20;;
43509;SDS011;29105;57.764;40.952;2023-01-24T05:13:17;38.78;;;12.50;;
43509;SDS011;29105;57.764;40.952;2023-01-24T05:15:49;43.15;;;16.25;;
43509;SDS011;29105;57.764;40.952;2023-01-24T05:18:15;54.05;;;16.33;;
43509;SDS011;29105;57.764;40.952;2023-01-24T05:20:42;27.35;;;12.38;;
43509;SDS011;29105;57.764;40.952;2023-01-24T05:23:09;45.97;;;16.23;;
43509;SDS011;29105;57.764;40.952;2023-01-24T05:25:34;41.30;;;15.38;;
43509;SDS011;29105;57.764;40.952;2023-01-24T05:28:00;46.05;;;16.63;;
43509;SDS011;29105;57.764;40.952;2023-01-24T05:30:27;30.88;;;12.05;;
43509;SDS011;29105;57.764;40.952;2023-01-24T05:32:56;47.85;;;19.23;;
43509;SDS011;29105;57.764;40.952;2023-01-24T05:35:22;27.30;;;10.63;;
43509;SDS011;29105;57.764;40.952;2023-01-24T05:37:48;47.08;;;15.43;;
43509;SDS011;29105;57.764;40.952;2023-01-24T05:40:13;38.47;;;15.68;;
43509;SDS011;29105;57.764;40.952;2023-01-24T05:42:40;23.58;;;9.18;;
43509;SDS011;29105;57.764;40.952;2023-01-24T05:45:07;37.97;;;13.23;;
43509;SDS011;29105;57.764;40.952;2023-01-24T05:47:36;53.78;;;19.88;;
43509;SDS011;29105;57.764;40.952;2023-01-24T05:50:02;46.65;;;16.35;;
43509;SDS011;29105;57.764;40.952;2023-01-24T05:52:28;35.80;;;13.43;;
43509;SDS011;29105;57.764;40.952;2023-01-24T05:54:53;56.33;;;19.60;;
43509;SDS011;29105;57.764;40.952;2023-01-24T05:57:19;45.15;;;15.52;;
43509;SDS011;29105;57.764;40.952;2023-01-24T05:59:45;41.58;;;14.93;;
43509;SDS011;29105;57.764;40.952;2023-01-24T06:02:10;49.97;;;16.65;;
43509;SDS011;29105;57.764;40.952;2023-01-24T06:04:36;46.80;;;13.93;;
43509;SDS011;29105;57.764;40.952;2023-01-24T06:07:02;50.88;;;19.30;;
43509;SDS011;29105;57.764;40.952;2023-01-24T06:09:28;38.20;;;12.40;;
43509;SDS011;29105;57.764;40.952;2023-01-24T06:11:55;48.88;;;17.63;;
43509;SDS011;29105;57.764;40.952;2023-01-24T06:14:23;52.53;;;18.77;;
43509;SDS011;29105;57.764;40.952;2023-01-24T06:16:49;45.25;;;18.77;;
43509;SDS011;29105;57.764;40.952;2023-01-24T06:19:14;44.75;;;18.30;;
43509;SDS011;29105;57.764;40.952;2023-01-24T06:26:41;36.92;;;14.20;;
43509;SDS011;29105;57.764;40.952;2023-01-24T06:29:08;39.35;;;15.32;;
43509;SDS011;29105;57.764;40.952;2023-01-24T06:37:02;29.60;;;10.60;;
43509;SDS011;29105;57.764;40.952;2023-01-24T06:39:32;33.55;;;9.75;;
43509;SDS011;29105;57.764;40.952;2023-01-24T06:41:59;32.88;;;11.48;;
43509;SDS011;29105;57.764;40.952;2023-01-24T06:44:25;33.20;;;10.18;;
43509;SDS011;29105;57.764;40.952;2023-01-24T06:46:51;32.95;;;10.77;;
43509;SDS011;29105;57.764;40.952;2023-01-24T06:49:16;51.08;;;17.33;;
43509;SDS011;29105;57.764;40.952;2023-01-24T06:51:42;48.75;;;18.05;;
43509;SDS011;29105;57.764;40.952;2023-01-24T06:54:08;32.88;;;10.52;;
43509;SDS011;29105;57.764;40.952;2023-01-24T06:56:33;49.00;;;17.52;;
43509;SDS011;29105;57.764;40.952;2023-01-24T06:58:59;43.15;;;14.85;;
43509;SDS011;29105;57.764;40.952;2023-01-24T07:01:25;44.70;;;16.80;;
43509;SDS011;29105;57.764;40.952;2023-01-24T07:03:51;27.15;;;8.38;;
43509;SDS011;29105;57.764;40.952;2023-01-24T07:06:16;39.22;;;13.90;;
43509;SDS011;29105;57.764;40.952;2023-01-24T07:08:43;30.35;;;11.98;;
43509;SDS011;29105;57.764;40.952;2023-01-24T07:11:09;26.67;;;10.48;;
43509;SDS011;29105;57.764;40.952;2023-01-24T07:13:37;49.47;;;16.48;;
43509;SDS011;29105;57.764;40.952;2023-01-24T07:16:03;39.50;;;13.73;;
43509;SDS011;29105;57.764;40.952;2023-01-24T07:18:29;45.92;;;15.52;;
43509;SDS011;29105;57.764;40.952;2023-01-24T07:20:57;39.85;;;12.52;;
43509;SDS011;29105;57.764;40.952;2023-01-24T07:23:27;55.50;;;20.60;;
43509;SDS011;29105;57.764;40.952;2023-01-24T07:25:58;48.83;;;15.75;;
43509;SDS011;29105;57.764;40.952;2023-01-24T07:28:26;33.33;;;12.20;;
43509;SDS011;29105;57.764;40.952;2023-01-24T07:30:53;25.23;;;9.25;;
43509;SDS011;29105;57.764;40.952;2023-01-24T07:33:19;52.90;;;19.35;;
43509;SDS011;29105;57.764;40.952;2023-01-24T07:35:47;37.78;;;12.60;;
43509;SDS011;29105;57.764;40.952;2023-01-24T07:38:13;45.53;;;16.13;;
43509;SDS011;29105;57.764;40.952;2023-01-24T07:40:40;42.67;;;14.45;;
43509;SDS011;29105;57.764;40.952;2023-01-24T07:43:07;39.08;;;13.98;;
43509;SDS011;29105;57.764;40.952;2023-01-24T07:45:37;50.05;;;16.67;;
43509;SDS011;29105;57.764;40.952;2023-01-24T07:48:04;46.47;;;15.02;;
43509;SDS011;29105;57.764;40.952;2023-01-24T07:50:32;50.97;;;18.42;;
43509;SDS011;29105;57.764;40.952;2023-01-24T07:52:59;33.22;;;9.88;;
43509;SDS011;29105;57.764;40.952;2023-01-24T07:55:25;41.70;;;13.05;;
43509;SDS011;29105;57.764;40.952;2023-01-24T07:57:51;44.97;;;16.65;;
43509;SDS011;29105;57.764;40.952;2023-01-24T08:00:24;44.67;;;14.48;;
43509;SDS011;29105;57.764;40.952;2023-01-24T08:02:53;51.17;;;19.85;;
43509;SDS011;29105;57.764;40.952;2023-01-24T08:05:23;43.50;;;16.02;;
43509;SDS011;29105;57.764;40.952;2023-01-24T08:07:53;36.70;;;12.40;;
43509;SDS011;29105;57.764;40.952;2023-01-24T08:10:20;42.05;;;15.63;;
43509;SDS011;29105;57.764;40.952;2023-01-24T08:12:49;48.33;;;17.15;;
43509;SDS011;29105;57.764;40.952;2023-01-24T08:15:18;45.45;;;17.55;;
43509;SDS011;29105;57.764;40.952;2023-01-24T08:17:45;46.97;;;17.35;;
43509;SDS011;29105;57.764;40.952;2023-01-24T08:20:14;26.42;;;9.98;;
43509;SDS011;29105;57.764;40.952;2023-01-24T08:22:40;33.22;;;13.38;;
43509;SDS011;29105;57.764;40.952;2023-01-24T08:25:06;43.88;;;16.40;;
43509;SDS011;29105;57.764;40.952;2023-01-24T08:27:32;34.20;;;13.90;;
43509;SDS011;29105;57.764;40.952;2023-01-24T08:29:59;36.00;;;12.13;;
43509;SDS011;29105;57.764;40.952;2023-01-24T08:32:25;24.25;;;9.35;;
43509;SDS011;29105;57.764;40.952;2023-01-24T08:34:50;36.92;;;12.43;;
43509;SDS011;29105;57.764;40.952;2023-01-24T08:37:16;26.90;;;9.48;;
43509;SDS011;29105;57.764;40.952;2023-01-24T08:39:42;38.47;;;13.48;;
43509;SDS011;29105;57.764;40.952;2023-01-24T08:42:08;46.33;;;16.70;;
43509;SDS011;29105;57.764;40.952;2023-01-24T08:44:35;28.77;;;10.32;;
43509;SDS011;29105;57.764;40.952;2023-01-24T08:47:01;47.53;;;17.17;;
43509;SDS011;29105;57.764;40.952;2023-01-24T08:49:26;45.28;;;17.77;;
43509;SDS011;29105;57.764;40.952;2023-01-24T08:51:52;47.00;;;18.55;;
43509;SDS011;29105;57.764;40.952;2023-01-24T08:54:26;30.90;;;13.32;;
43509;SDS011;29105;57.764;40.952;2023-01-24T08:56:57;38.27;;;15.00;;
43509;SDS011;29105;57.764;40.952;2023-01-24T08:59:23;13.13;;;5.45;;
43509;SDS011;29105;57.764;40.952;2023-01-24T09:01:50;31.90;;;10.02;;
43509;SDS011;29105;57.764;40.952;2023-01-24T09:04:17;31.77;;;11.82;;
43509;SDS011;29105;57.764;40.952;2023-01-24T09:06:43;21.80;;;8.48;;
43509;SDS011;29105;57.764;40.952;2023-01-24T09:09:09;26.08;;;7.80;;
43509;SDS011;29105;57.764;40.952;2023-01-24T09:11:36;22.85;;;7.22;;
43509;SDS011;29105;57.764;40.952;2023-01-24T09:14:03;17.58;;;7.07;;
43509;SDS011;29105;57.764;40.952;2023-01-24T09:16:29;29.05;;;11.75;;
43509;SDS011;29105;57.764;40.952;2023-01-24T09:18:55;32.38;;;11.75;;
43509;SDS011;29105;57.764;40.952;2023-01-24T09:21:21;14.80;;;5.70;;
43509;SDS011;29105;57.764;40.952;2023-01-24T09:23:49;22.05;;;7.60;;
43509;SDS011;29105;57.764;40.952;2023-01-24T09:26:17;23.30;;;8.60;;
43509;SDS011;29105;57.764;40.952;2023-01-24T09:28:44;27.05;;;10.52;;
43509;SDS011;29105;57.764;40.952;2023-01-24T09:31:10;30.30;;;10.98;;
43509;SDS011;29105;57.764;40.952;2023-01-24T09:33:37;22.60;;;8.07;;
43509;SDS011;29105;57.764;40.952;2023-01-24T09:36:03;11.30;;;3.70;;
43509;SDS011;29105;57.764;40.952;2023-01-24T09:38:30;21.83;;;9.20;;
43509;SDS011;29105;57.764;40.952;2023-01-24T09:41:03;10.05;;;4.82;;
43509;SDS011;29105;57.764;40.952;2023-01-24T09:46:20;10.90;;;4.43;;
43509;SDS011;29105;57.764;40.952;2023-01-24T09:49:13;14.63;;;4.57;;
43509;SDS011;29105;57.764;40.952;2023-01-24T09:51:46;14.63;;;7.13;;
43509;SDS011;29105;57.764;40.952;2023-01-24T09:54:24;21.80;;;9.07;;
43509;SDS011;29105;57.764;40.952;2023-01-24T09:56:55;9.95;;;4.18;;
43509;SDS011;29105;57.764;40.952;2023-01-24T09:59:41;15.68;;;6.90;;
43509;SDS011;29105;57.764;40.952;2023-01-24T10:02:27;10.68;;;5.05;;
43509;SDS011;29105;57.764;40.952;2023-01-24T10:04:53;20.67;;;8.35;;
43509;SDS011;29105;57.764;40.952;2023-01-24T10:10:45;16.17;;;7.13;;
43509;SDS011;29105;57.764;40.952;2023-01-24T10:16:05;10.80;;;3.72;;
43509;SDS011;29105;57.764;40.952;2023-01-24T10:24:45;7.90;;;3.45;;
43509;SDS011;29105;57.764;40.952;2023-01-24T10:27:30;6.85;;;4.03;;
43509;SDS011;29105;57.764;40.952;2023-01-24T10:29:58;4.50;;;2.17;;
43509;SDS011;29105;57.764;40.952;2023-01-24T10:32:33;6.38;;;3.15;;
43509;SDS011;29105;57.764;40.952;2023-01-24T10:35:11;5.85;;;2.83;;
43509;SDS011;29105;57.764;40.952;2023-01-24T10:37:41;7.03;;;3.03;;
43509;SDS011;29105;57.764;40.952;2023-01-24T10:40:16;5.53;;;2.45;;
43509;SDS011;29105;57.764;40.952;2023-01-24T10:42:42;8.65;;;3.75;;
43509;SDS011;29105;57.764;40.952;2023-01-24T10:45:27;11.15;;;4.25;;
43509;SDS011;29105;57.764;40.952;2023-01-24T10:50:34;4.93;;;2.42;;
43509;SDS011;29105;57.764;40.952;2023-01-24T10:53:43;9.73;;;4.53;;
43509;SDS011;29105;57.764;40.952;2023-01-24T10:55:56;7.22;;;3.08;;
43509;SDS011;29105;57.764;40.952;2023-01-24T11:01:18;6.25;;;3.20;;
43509;SDS011;29105;57.764;40.952;2023-01-24T11:03:47;5.90;;;2.42;;
43509;SDS011;29105;57.764;40.952;2023-01-24T11:09:09;4.13;;;2.20;;
43509;SDS011;29105;57.764;40.952;2023-01-24T11:11:40;7.18;;;3.85;;
43509;SDS011;29105;57.764;40.952;2023-01-24T11:14:16;6.00;;;3.50;;
43509;SDS011;29105;57.764;40.952;2023-01-24T11:16:45;5.63;;;2.08;;
43509;SDS011;29105;57.764;40.952;2023-01-24T11:22:00;16.23;;;3.03;;
43509;SDS011;29105;57.764;40.952;2023-01-24T11:24:27;6.32;;;2.95;;
43509;SDS011;29105;57.764;40.952;2023-01-24T11:29:32;2.53;;;1.48;;
43509;SDS011;29105;57.764;40.952;2023-01-24T11:32:19;3.97;;;1.85;;
43509;SDS011;29105;57.764;40.952;2023-01-24T11:35:08;7.05;;;2.95;;
43509;SDS011;29105;57.764;40.952;2023-01-24T12:01:44;8.35;;;3.50;;
43509;SDS011;29105;57.764;40.952;2023-01-24T12:12:19;7.80;;;3.03;;
43509;SDS011;29105;57.764;40.952;2023-01-24T12:17:27;4.28;;;2.58;;
43509;SDS011;29105;57.764;40.952;2023-01-24T12:23:03;10.18;;;3.45;;
43509;SDS011;29105;57.764;40.952;2023-01-24T12:25:37;8.95;;;3.78;;
43509;SDS011;29105;57.764;40.952;2023-01-24T12:28:05;5.68;;;2.78;;
43509;SDS011;29105;57.764;40.952;2023-01-24T12:30:43;4.85;;;3.10;;
43509;SDS011;29105;57.764;40.952;2023-01-24T12:33:27;4.43;;;2.67;;
43509;SDS011;29105;57.764;40.952;2023-01-24T12:39:00;8.98;;;3.50;;
43509;SDS011;29105;57.764;40.952;2023-01-24T12:41:34;9.52;;;3.65;;
43509;SDS011;29105;57.764;40.952;2023-01-24T12:44:11;10.23;;;3.22;;
43509;SDS011;29105;57.764;40.952;2023-01-24T13:00:56;14.98;;;6.55;;
43509;SDS011;29105;57.764;40.952;2023-01-24T13:12:42;10.13;;;4.40;;
43509;SDS011;29105;57.764;40.952;2023-01-24T13:15:19;10.35;;;4.78;;
43509;SDS011;29105;57.764;40.952;2023-01-24T13:22:57;6.65;;;3.30;;
43509;SDS011;29105;57.764;40.952;2023-01-24T13:31:14;12.70;;;4.93;;
43509;SDS011;29105;57.764;40.952;2023-01-24T13:33:59;7.13;;;3.15;;
43509;SDS011;29105;57.764;40.952;2023-01-24T13:36:34;7.80;;;3.42;;
43509;SDS011;29105;57.764;40.952;2023-01-24T13:39:01;7.35;;;3.40;;
43509;SDS011;29105;57.764;40.952;2023-01-24T13:51:53;7.40;;;2.88;;
43509;SDS011;29105;57.764;40.952;2023-01-24T13:59:35;11.25;;;4.95;;
43509;SDS011;29105;57.764;40.952;2023-01-24T14:02:03;12.48;;;5.47;;
43509;SDS011;29105;57.764;40.952;2023-01-24T14:04:45;10.32;;;4.88;;
43509;SDS011;29105;57.764;40.952;2023-01-24T14:07:30;8.02;;;3.88;;
43509;SDS011;29105;57.764;40.952;2023-01-24T14:10:03;12.45;;;4.40;;
43509;SDS011;29105;57.764;40.952;2023-01-24T14:12:39;17.90;;;7.00;;
43509;SDS011;29105;57.764;40.952;2023-01-24T14:20:04;8.93;;;4.68;;
43509;SDS011;29105;57.764;40.952;2023-01-24T14:22:44;14.68;;;5.47;;
43509;SDS011;29105;57.764;40.952;2023-01-24T14:25:20;11.68;;;4.53;;
43509;SDS011;29105;57.764;40.952;2023-01-24T14:30:48;18.25;;;7.93;;
43509;SDS011;29105;57.764;40.952;2023-01-24T14:38:46;10.68;;;3.45;;
43509;SDS011;29105;57.764;40.952;2023-01-24T14:41:21;3.20;;;1.60;;
43509;SDS011;29105;57.764;40.952;2023-01-24T14:43:47;2.65;;;1.27;;
43509;SDS011;29105;57.764;40.952;2023-01-24T14:46:19;4.47;;;1.90;;
43509;SDS011;29105;57.764;40.952;2023-01-24T14:48:48;6.07;;;2.40;;
43509;SDS011;29105;57.764;40.952;2023-01-24T14:51:18;7.25;;;3.70;;
43509;SDS011;29105;57.764;40.952;2023-01-24T14:53:52;3.45;;;2.35;;
43509;SDS011;29105;57.764;40.952;2023-01-24T14:56:19;5.93;;;2.35;;
43509;SDS011;29105;57.764;40.952;2023-01-24T14:58:45;4.18;;;2.00;;
43509;SDS011;29105;57.764;40.952;2023-01-24T15:01:24;2.53;;;1.42;;
43509;SDS011;29105;57.764;40.952;2023-01-24T15:03:51;2.83;;;1.50;;
43509;SDS011;29105;57.764;40.952;2023-01-24T15:06:17;5.40;;;1.67;;
43509;SDS011;29105;57.764;40.952;2023-01-24T15:08:43;4.45;;;2.42;;
43509;SDS011;29105;57.764;40.952;2023-01-24T15:11:25;3.78;;;1.63;;
43509;SDS011;29105;57.764;40.952;2023-01-24T15:13:55;1.30;;;0.85;;
43509;SDS011;29105;57.764;40.952;2023-01-24T15:16:33;3.60;;;2.05;;
43509;SDS011;29105;57.764;40.952;2023-01-24T15:19:04;4.03;;;2.60;;
43509;SDS011;29105;57.764;40.952;2023-01-24T15:21:33;3.63;;;1.70;;
43509;SDS011;29105;57.764;40.952;2023-01-24T15:24:03;2.92;;;1.75;;
43509;SDS011;29105;57.764;40.952;2023-01-24T15:28:58;2.22;;;1.25;;
43509;SDS011;29105;57.764;40.952;2023-01-24T15:31:27;3.53;;;0.88;;
43509;SDS011;29105;57.764;40.952;2023-01-24T15:33:58;0.95;;;0.65;;
43509;SDS011;29105;57.764;40.952;2023-01-24T15:36:25;1.77;;;1.15;;
43509;SDS011;29105;57.764;40.952;2023-01-24T15:38:58;5.60;;;2.17;;
43509;SDS011;29105;57.764;40.952;2023-01-24T15:41:26;2.88;;;1.55;;
43509;SDS011;29105;57.764;40.952;2023-01-24T15:44:11;4.13;;;1.92;;
43509;SDS011;29105;57.764;40.952;2023-01-24T15:46:40;2.72;;;1.85;;
43509;SDS011;29105;57.764;40.952;2023-01-24T15:52:46;7.22;;;1.25;;
43509;SDS011;29105;57.764;40.952;2023-01-24T15:55:12;4.93;;;2.20;;
43509;SDS011;29105;57.764;40.952;2023-01-24T15:57:38;2.55;;;1.67;;
43509;SDS011;29105;57.764;40.952;2023-01-24T16:02:32;2.55;;;1.58;;
43509;SDS011;29105;57.764;40.952;2023-01-24T16:04:59;1.27;;;1.13;;
43509;SDS011;29105;57.764;40.952;2023-01-24T16:07:25;3.90;;;1.13;;
43509;SDS011;29105;57.764;40.952;2023-01-24T16:09:51;2.58;;;1.70;;
43509;SDS011;29105;57.764;40.952;2023-01-24T16:12:20;2.20;;;1.40;;
43509;SDS011;29105;57.764;40.952;2023-01-24T16:14:49;1.90;;;1.25;;
43509;SDS011;29105;57.764;40.952;2023-01-24T16:17:17;1.77;;;1.10;;
43509;SDS011;29105;57.764;40.952;2023-01-24T16:19:44;2.50;;;1.48;;
43509;SDS011;29105;57.764;40.952;2023-01-24T16:22:10;2.05;;;0.90;;
43509;SDS011;29105;57.764;40.952;2023-01-24T16:24:36;2.40;;;1.58;;
43509;SDS011;29105;57.764;40.952;2023-01-24T16:27:02;2.78;;;1.48;;
43509;SDS011;29105;57.764;40.952;2023-01-24T16:29:28;1.23;;;0.88;;
43509;SDS011;29105;57.764;40.952;2023-01-24T16:31:55;2.97;;;1.23;;
43509;SDS011;29105;57.764;40.952;2023-01-24T16:34:22;2.75;;;1.35;;
43509;SDS011;29105;57.764;40.952;2023-01-24T16:36:48;2.90;;;1.38;;
43509;SDS011;29105;57.764;40.952;2023-01-24T16:39:18;3.03;;;1.23;;
43509;SDS011;29105;57.764;40.952;2023-01-24T16:41:48;3.33;;;1.70;;
43509;SDS011;29105;57.764;40.952;2023-01-24T16:44:14;2.63;;;1.40;;
43509;SDS011;29105;57.764;40.952;2023-01-24T16:46:40;2.05;;;1.23;;
43509;SDS011;29105;57.764;40.952;2023-01-24T16:49:12;3.63;;;2.10;;
43509;SDS011;29105;57.764;40.952;2023-01-24T16:51:38;1.63;;;0.95;;
43509;SDS011;29105;57.764;40.952;2023-01-24T16:54:03;1.88;;;1.50;;
43509;SDS011;29105;57.764;40.952;2023-01-24T16:56:29;2.03;;;1.25;;
43509;SDS011;29105;57.764;40.952;2023-01-24T16:58:55;2.53;;;0.80;;
43509;SDS011;29105;57.764;40.952;2023-01-24T17:01:21;2.72;;;1.85;;
43509;SDS011;29105;57.764;40.952;2023-01-24T17:03:49;1.40;;;1.10;;
43509;SDS011;29105;57.764;40.952;2023-01-24T17:06:16;2.65;;;1.42;;
43509;SDS011;29105;57.764;40.952;2023-01-24T17:08:42;1.67;;;1.00;;
43509;SDS011;29105;57.764;40.952;2023-01-24T17:11:09;3.45;;;1.85;;